sensor_id;sensor_type;location;lat;lon;timestamp;temperature;humidity
44982;DHT22;30716;41.740;-70.400;2022-11-20T00:01:55;24.40;47.00
44982;DHT22;30716;41.740;-70.400;2022-11-20T00:04:21;24.40;47.00
44982;DHT22;30716;41.740;-70.400;2022-11-20T00:06:47;24.40;47.00
44982;DHT22;30716;41.740;-70.400;2022-11-20T00:09:13;24.40;46.90
44982;DHT22;30716;41.740;-70.400;2022-11-20T00:11:39;24.40;47.00
44982;DHT22;30716;41.740;-70.400;2022-11-20T00:14:05;24.40;47.20
44982;DHT22;30716;41.740;-70.400;2022-11-20T00:16:32;24.30;47.00
44982;DHT22;30716;41.740;-70.400;2022-11-20T00:18:59;24.40;47.20
44982;DHT22;30716;41.740;-70.400;2022-11-20T00:21:27;24.30;47.20
44982;DHT22;30716;41.740;-70.400;2022-11-20T00:23:55;24.40;47.30
44982;DHT22;30716;41.740;-70.400;2022-11-20T00:26:22;24.30;47.20
44982;DHT22;30716;41.740;-70.400;2022-11-20T00:28:51;24.40;47.30
44982;DHT22;30716;41.740;-70.400;2022-11-20T00:31:18;24.40;47.50
44982;DHT22;30716;41.740;-70.400;2022-11-20T00:33:44;24.40;47.50
44982;DHT22;30716;41.740;-70.400;2022-11-20T00:36:14;24.40;47.50
44982;DHT22;30716;41.740;-70.400;2022-11-20T00:38:41;24.40;47.50
44982;DHT22;30716;41.740;-70.400;2022-11-20T00:41:09;24.30;47.30
44982;DHT22;30716;41.740;-70.400;2022-11-20T00:43:36;24.40;47.30
44982;DHT22;30716;41.740;-70.400;2022-11-20T00:46:04;24.40;47.40
44982;DHT22;30716;41.740;-70.400;2022-11-20T00:48:31;24.40;47.30
44982;DHT22;30716;41.740;-70.400;2022-11-20T00:50:57;24.40;47.40
44982;DHT22;30716;41.740;-70.400;2022-11-20T00:53:23;24.40;47.40
44982;DHT22;30716;41.740;-70.400;2022-11-20T00:56:36;24.40;47.40
44982;DHT22;30716;41.740;-70.400;2022-11-20T00:58:45;24.40;47.50
44982;DHT22;30716;41.740;-70.400;2022-11-20T01:01:14;24.40;47.30
44982;DHT22;30716;41.740;-70.400;2022-11-20T01:03:43;24.40;47.50
44982;DHT22;30716;41.740;-70.400;2022-11-20T01:06:22;24.40;47.40
44982;DHT22;30716;41.740;-70.400;2022-11-20T01:08:50;24.40;47.40
44982;DHT22;30716;41.740;-70.400;2022-11-20T01:11:22;24.40;47.40
44982;DHT22;30716;41.740;-70.400;2022-11-20T01:13:50;24.40;47.40
44982;DHT22;30716;41.740;-70.400;2022-11-20T01:16:25;24.40;47.50
44982;DHT22;30716;41.740;-70.400;2022-11-20T01:18:55;24.40;47.50
44982;DHT22;30716;41.740;-70.400;2022-11-20T01:21:27;24.30;47.40
44982;DHT22;30716;41.740;-70.400;2022-11-20T01:23:54;24.40;47.40
44982;DHT22;30716;41.740;-70.400;2022-11-20T01:26:34;24.40;47.40
44982;DHT22;30716;41.740;-70.400;2022-11-20T01:29:01;24.30;47.40
44982;DHT22;30716;41.740;-70.400;2022-11-20T01:31:30;24.30;47.50
44982;DHT22;30716;41.740;-70.400;2022-11-20T01:33:58;24.30;47.50
44982;DHT22;30716;41.740;-70.400;2022-11-20T01:36:27;24.30;47.50
44982;DHT22;30716;41.740;-70.400;2022-11-20T01:38:59;24.30;47.60
44982;DHT22;30716;41.740;-70.400;2022-11-20T01:41:27;24.30;47.50
44982;DHT22;30716;41.740;-70.400;2022-11-20T01:44:14;24.30;47.50
44982;DHT22;30716;41.740;-70.400;2022-11-20T01:51:52;24.30;47.40
44982;DHT22;30716;41.740;-70.400;2022-11-20T01:54:38;24.30;47.40
44982;DHT22;30716;41.740;-70.400;2022-11-20T01:57:07;24.40;47.50
44982;DHT22;30716;41.740;-70.400;2022-11-20T01:59:36;24.40;47.60
44982;DHT22;30716;41.740;-70.400;2022-11-20T02:02:06;24.40;47.50
44982;DHT22;30716;41.740;-70.400;2022-11-20T02:04:32;24.40;47.50
44982;DHT22;30716;41.740;-70.400;2022-11-20T02:07:04;24.40;47.40
44982;DHT22;30716;41.740;-70.400;2022-11-20T02:09:31;24.40;47.40
44982;DHT22;30716;41.740;-70.400;2022-11-20T02:11:57;24.40;47.30
44982;DHT22;30716;41.740;-70.400;2022-11-20T02:14:24;24.40;47.40
44982;DHT22;30716;41.740;-70.400;2022-11-20T02:16:51;24.40;47.30
44982;DHT22;30716;41.740;-70.400;2022-11-20T02:19:27;24.40;47.30
44982;DHT22;30716;41.740;-70.400;2022-11-20T02:22:06;24.40;47.30
44982;DHT22;30716;41.740;-70.400;2022-11-20T02:24:33;24.40;47.20
44982;DHT22;30716;41.740;-70.400;2022-11-20T02:27:11;24.40;47.30
44982;DHT22;30716;41.740;-70.400;2022-11-20T02:29:51;24.40;47.20
44982;DHT22;30716;41.740;-70.400;2022-11-20T02:34:48;24.40;47.30
44982;DHT22;30716;41.740;-70.400;2022-11-20T02:37:14;24.40;47.30
44982;DHT22;30716;41.740;-70.400;2022-11-20T02:39:42;24.40;47.30
44982;DHT22;30716;41.740;-70.400;2022-11-20T02:42:09;24.40;47.20
44982;DHT22;30716;41.740;-70.400;2022-11-20T02:44:35;24.40;47.30
44982;DHT22;30716;41.740;-70.400;2022-11-20T02:47:01;24.40;47.30
44982;DHT22;30716;41.740;-70.400;2022-11-20T02:49:29;24.40;47.30
44982;DHT22;30716;41.740;-70.400;2022-11-20T02:51:56;24.50;47.20
44982;DHT22;30716;41.740;-70.400;2022-11-20T02:54:22;24.50;47.30
44982;DHT22;30716;41.740;-70.400;2022-11-20T02:56:48;24.40;47.30
44982;DHT22;30716;41.740;-70.400;2022-11-20T02:59:15;24.50;47.40
44982;DHT22;30716;41.740;-70.400;2022-11-20T03:01:41;24.50;47.40
44982;DHT22;30716;41.740;-70.400;2022-11-20T03:04:07;24.50;47.40
44982;DHT22;30716;41.740;-70.400;2022-11-20T03:06:33;24.50;47.40
44982;DHT22;30716;41.740;-70.400;2022-11-20T03:09:00;24.50;47.40
44982;DHT22;30716;41.740;-70.400;2022-11-20T03:11:27;24.50;47.10
44982;DHT22;30716;41.740;-70.400;2022-11-20T03:13:53;24.50;46.90
44982;DHT22;30716;41.740;-70.400;2022-11-20T03:16:21;24.60;47.00
44982;DHT22;30716;41.740;-70.400;2022-11-20T03:18:48;24.60;47.00
44982;DHT22;30716;41.740;-70.400;2022-11-20T03:21:15;24.70;47.10
44982;DHT22;30716;41.740;-70.400;2022-11-20T03:23:42;24.80;47.20
44982;DHT22;30716;41.740;-70.400;2022-11-20T03:26:16;24.80;47.20
44982;DHT22;30716;41.740;-70.400;2022-11-20T03:28:47;24.80;47.20
44982;DHT22;30716;41.740;-70.400;2022-11-20T03:31:15;24.90;47.20
44982;DHT22;30716;41.740;-70.400;2022-11-20T03:33:42;24.90;47.20
44982;DHT22;30716;41.740;-70.400;2022-11-20T03:36:11;24.90;47.30
44982;DHT22;30716;41.740;-70.400;2022-11-20T03:38:38;24.90;47.20
44982;DHT22;30716;41.740;-70.400;2022-11-20T03:41:13;24.90;47.30
44982;DHT22;30716;41.740;-70.400;2022-11-20T03:43:40;25.00;47.40
44982;DHT22;30716;41.740;-70.400;2022-11-20T03:46:06;25.00;47.30
44982;DHT22;30716;41.740;-70.400;2022-11-20T03:48:33;25.00;47.30
44982;DHT22;30716;41.740;-70.400;2022-11-20T03:51:14;25.00;47.30
44982;DHT22;30716;41.740;-70.400;2022-11-20T03:53:45;25.10;47.40
44982;DHT22;30716;41.740;-70.400;2022-11-20T03:56:12;25.10;47.40
44982;DHT22;30716;41.740;-70.400;2022-11-20T03:58:39;25.10;47.40
44982;DHT22;30716;41.740;-70.400;2022-11-20T04:01:16;25.10;47.40
44982;DHT22;30716;41.740;-70.400;2022-11-20T04:03:43;25.10;47.40
44982;DHT22;30716;41.740;-70.400;2022-11-20T04:06:18;25.20;47.50
44982;DHT22;30716;41.740;-70.400;2022-11-20T04:08:45;25.20;47.50
44982;DHT22;30716;41.740;-70.400;2022-11-20T04:11:16;25.20;47.40
44982;DHT22;30716;41.740;-70.400;2022-11-20T04:13:46;25.20;47.50
44982;DHT22;30716;41.740;-70.400;2022-11-20T04:16:13;25.20;47.50
44982;DHT22;30716;41.740;-70.400;2022-11-20T04:18:39;25.20;47.50
44982;DHT22;30716;41.740;-70.400;2022-11-20T04:21:06;25.20;47.50
44982;DHT22;30716;41.740;-70.400;2022-11-20T04:23:33;25.30;47.50
44982;DHT22;30716;41.740;-70.400;2022-11-20T04:26:10;25.30;47.50
44982;DHT22;30716;41.740;-70.400;2022-11-20T04:28:36;25.30;47.50
44982;DHT22;30716;41.740;-70.400;2022-11-20T04:31:16;25.30;47.50
44982;DHT22;30716;41.740;-70.400;2022-11-20T04:33:43;25.30;47.50
44982;DHT22;30716;41.740;-70.400;2022-11-20T04:38:43;25.30;47.50
44982;DHT22;30716;41.740;-70.400;2022-11-20T04:41:20;25.30;47.50
44982;DHT22;30716;41.740;-70.400;2022-11-20T04:43:48;25.30;47.50
44982;DHT22;30716;41.740;-70.400;2022-11-20T04:46:15;25.30;47.50
44982;DHT22;30716;41.740;-70.400;2022-11-20T04:48:41;25.30;47.50
44982;DHT22;30716;41.740;-70.400;2022-11-20T04:51:07;25.40;47.60
44982;DHT22;30716;41.740;-70.400;2022-11-20T04:53:34;25.40;47.60
44982;DHT22;30716;41.740;-70.400;2022-11-20T04:56:01;25.40;47.60
44982;DHT22;30716;41.740;-70.400;2022-11-20T04:58:28;25.40;47.60
44982;DHT22;30716;41.740;-70.400;2022-11-20T05:01:00;25.40;47.60
44982;DHT22;30716;41.740;-70.400;2022-11-20T05:03:26;25.40;47.60
44982;DHT22;30716;41.740;-70.400;2022-11-20T05:05:52;25.40;47.60
44982;DHT22;30716;41.740;-70.400;2022-11-20T05:08:18;25.50;47.70
44982;DHT22;30716;41.740;-70.400;2022-11-20T05:10:44;25.40;47.60
44982;DHT22;30716;41.740;-70.400;2022-11-20T05:13:10;25.40;47.60
44982;DHT22;30716;41.740;-70.400;2022-11-20T05:15:36;25.40;47.60
44982;DHT22;30716;41.740;-70.400;2022-11-20T05:18:03;25.40;47.60
44982;DHT22;30716;41.740;-70.400;2022-11-20T05:20:29;25.40;47.60
44982;DHT22;30716;41.740;-70.400;2022-11-20T05:22:58;25.30;47.50
44982;DHT22;30716;41.740;-70.400;2022-11-20T05:25:24;25.30;47.50
44982;DHT22;30716;41.740;-70.400;2022-11-20T05:27:51;25.30;47.50
44982;DHT22;30716;41.740;-70.400;2022-11-20T05:30:17;25.30;47.60
44982;DHT22;30716;41.740;-70.400;2022-11-20T05:32:43;25.30;47.60
44982;DHT22;30716;41.740;-70.400;2022-11-20T05:35:09;25.30;47.50
44982;DHT22;30716;41.740;-70.400;2022-11-20T05:37:35;25.20;48.20
44982;DHT22;30716;41.740;-70.400;2022-11-20T05:40:01;25.20;47.50
44982;DHT22;30716;41.740;-70.400;2022-11-20T05:42:30;25.20;47.50
44982;DHT22;30716;41.740;-70.400;2022-11-20T05:45:01;25.20;47.50
44982;DHT22;30716;41.740;-70.400;2022-11-20T05:47:31;25.10;47.40
44982;DHT22;30716;41.740;-70.400;2022-11-20T05:49:57;25.20;47.50
44982;DHT22;30716;41.740;-70.400;2022-11-20T05:52:24;25.10;47.40
44982;DHT22;30716;41.740;-70.400;2022-11-20T05:54:50;25.20;47.50
44982;DHT22;30716;41.740;-70.400;2022-11-20T05:57:16;25.10;47.40
44982;DHT22;30716;41.740;-70.400;2022-11-20T05:59:42;25.10;47.40
44982;DHT22;30716;41.740;-70.400;2022-11-20T06:02:08;25.10;47.40
44982;DHT22;30716;41.740;-70.400;2022-11-20T06:04:34;25.10;47.40
44982;DHT22;30716;41.740;-70.400;2022-11-20T06:07:00;25.10;47.40
44982;DHT22;30716;41.740;-70.400;2022-11-20T06:09:26;25.10;47.40
44982;DHT22;30716;41.740;-70.400;2022-11-20T06:11:53;25.00;47.30
44982;DHT22;30716;41.740;-70.400;2022-11-20T06:14:19;25.10;47.40
44982;DHT22;30716;41.740;-70.400;2022-11-20T06:16:45;25.10;47.40
44982;DHT22;30716;41.740;-70.400;2022-11-20T06:19:11;25.10;47.40
44982;DHT22;30716;41.740;-70.400;2022-11-20T06:21:37;25.10;47.30
44982;DHT22;30716;41.740;-70.400;2022-11-20T06:24:03;25.00;47.30
44982;DHT22;30716;41.740;-70.400;2022-11-20T06:26:30;25.00;47.70
44982;DHT22;30716;41.740;-70.400;2022-11-20T06:28:56;25.00;47.30
44982;DHT22;30716;41.740;-70.400;2022-11-20T06:31:24;25.00;47.40
44982;DHT22;30716;41.740;-70.400;2022-11-20T06:33:51;25.00;47.30
44982;DHT22;30716;41.740;-70.400;2022-11-20T06:36:18;25.00;47.30
44982;DHT22;30716;41.740;-70.400;2022-11-20T06:38:45;25.00;47.30
44982;DHT22;30716;41.740;-70.400;2022-11-20T06:41:14;25.00;47.30
44982;DHT22;30716;41.740;-70.400;2022-11-20T06:43:40;25.00;47.30
44982;DHT22;30716;41.740;-70.400;2022-11-20T06:46:08;25.00;47.30
44982;DHT22;30716;41.740;-70.400;2022-11-20T06:48:34;25.00;47.30
44982;DHT22;30716;41.740;-70.400;2022-11-20T06:51:03;25.00;47.40
44982;DHT22;30716;41.740;-70.400;2022-11-20T06:53:30;25.00;48.10
44982;DHT22;30716;41.740;-70.400;2022-11-20T06:55:56;24.90;47.20
44982;DHT22;30716;41.740;-70.400;2022-11-20T06:58:30;24.90;47.20
44982;DHT22;30716;41.740;-70.400;2022-11-20T07:01:02;24.90;47.20
44982;DHT22;30716;41.740;-70.400;2022-11-20T07:03:28;24.90;47.20
44982;DHT22;30716;41.740;-70.400;2022-11-20T07:05:56;24.90;47.20
44982;DHT22;30716;41.740;-70.400;2022-11-20T07:08:23;24.90;47.20
44982;DHT22;30716;41.740;-70.400;2022-11-20T07:10:49;24.90;47.20
44982;DHT22;30716;41.740;-70.400;2022-11-20T07:13:15;24.90;47.20
44982;DHT22;30716;41.740;-70.400;2022-11-20T07:15:41;24.90;47.20
44982;DHT22;30716;41.740;-70.400;2022-11-20T07:18:07;24.90;47.20
44982;DHT22;30716;41.740;-70.400;2022-11-20T07:20:33;24.90;47.30
44982;DHT22;30716;41.740;-70.400;2022-11-20T07:22:59;24.90;47.20
44982;DHT22;30716;41.740;-70.400;2022-11-20T07:25:27;24.80;47.20
44982;DHT22;30716;41.740;-70.400;2022-11-20T07:27:58;24.80;47.20
44982;DHT22;30716;41.740;-70.400;2022-11-20T07:30:24;24.80;47.20
44982;DHT22;30716;41.740;-70.400;2022-11-20T07:32:52;24.90;47.20
44982;DHT22;30716;41.740;-70.400;2022-11-20T07:35:18;25.00;47.30
44982;DHT22;30716;41.740;-70.400;2022-11-20T07:37:44;25.00;47.30
44982;DHT22;30716;41.740;-70.400;2022-11-20T07:40:12;25.10;47.30
44982;DHT22;30716;41.740;-70.400;2022-11-20T07:42:39;25.20;47.50
44982;DHT22;30716;41.740;-70.400;2022-11-20T07:45:12;25.20;47.50
44982;DHT22;30716;41.740;-70.400;2022-11-20T07:47:38;25.30;47.50
44982;DHT22;30716;41.740;-70.400;2022-11-20T07:50:05;25.30;47.50
44982;DHT22;30716;41.740;-70.400;2022-11-20T07:52:31;25.30;47.50
44982;DHT22;30716;41.740;-70.400;2022-11-20T07:54:57;25.40;47.60
44982;DHT22;30716;41.740;-70.400;2022-11-20T07:57:23;25.40;47.60
44982;DHT22;30716;41.740;-70.400;2022-11-20T07:59:49;25.40;47.60
44982;DHT22;30716;41.740;-70.400;2022-11-20T08:02:15;25.40;47.60
44982;DHT22;30716;41.740;-70.400;2022-11-20T08:04:41;25.40;47.60
44982;DHT22;30716;41.740;-70.400;2022-11-20T08:07:07;25.40;47.50
44982;DHT22;30716;41.740;-70.400;2022-11-20T08:09:33;25.50;47.60
44982;DHT22;30716;41.740;-70.400;2022-11-20T08:11:59;25.50;47.60
44982;DHT22;30716;41.740;-70.400;2022-11-20T08:14:44;25.50;47.80
44982;DHT22;30716;41.740;-70.400;2022-11-20T08:17:10;25.50;47.00
44982;DHT22;30716;41.740;-70.400;2022-11-20T08:19:36;25.50;47.10
44982;DHT22;30716;41.740;-70.400;2022-11-20T08:22:02;25.50;47.10
44982;DHT22;30716;41.740;-70.400;2022-11-20T08:24:28;25.50;46.90
44982;DHT22;30716;41.740;-70.400;2022-11-20T08:26:56;25.50;47.00
44982;DHT22;30716;41.740;-70.400;2022-11-20T08:29:22;25.50;47.10
44982;DHT22;30716;41.740;-70.400;2022-11-20T08:31:48;25.50;47.10
44982;DHT22;30716;41.740;-70.400;2022-11-20T08:34:15;25.50;46.90
44982;DHT22;30716;41.740;-70.400;2022-11-20T08:36:41;25.60;46.90
44982;DHT22;30716;41.740;-70.400;2022-11-20T08:39:07;25.60;46.70
44982;DHT22;30716;41.740;-70.400;2022-11-20T08:41:33;25.60;46.50
44982;DHT22;30716;41.740;-70.400;2022-11-20T08:44:01;25.60;46.50
44982;DHT22;30716;41.740;-70.400;2022-11-20T08:46:35;25.60;46.50
44982;DHT22;30716;41.740;-70.400;2022-11-20T08:49:07;25.60;46.50
44982;DHT22;30716;41.740;-70.400;2022-11-20T08:51:33;25.60;46.40
44982;DHT22;30716;41.740;-70.400;2022-11-20T08:54:00;25.60;46.40
44982;DHT22;30716;41.740;-70.400;2022-11-20T08:56:26;25.60;46.60
44982;DHT22;30716;41.740;-70.400;2022-11-20T08:58:52;25.60;46.60
44982;DHT22;30716;41.740;-70.400;2022-11-20T09:01:19;25.50;46.60
44982;DHT22;30716;41.740;-70.400;2022-11-20T09:03:46;25.50;46.70
44982;DHT22;30716;41.740;-70.400;2022-11-20T09:06:12;25.50;46.80
44982;DHT22;30716;41.740;-70.400;2022-11-20T09:08:39;25.50;46.90
44982;DHT22;30716;41.740;-70.400;2022-11-20T09:11:05;25.50;46.80
44982;DHT22;30716;41.740;-70.400;2022-11-20T09:13:33;25.50;46.90
44982;DHT22;30716;41.740;-70.400;2022-11-20T09:16:05;25.40;47.30
44982;DHT22;30716;41.740;-70.400;2022-11-20T09:18:33;25.40;47.10
44982;DHT22;30716;41.740;-70.400;2022-11-20T09:21:02;25.40;47.00
44982;DHT22;30716;41.740;-70.400;2022-11-20T09:23:32;25.40;46.80
44982;DHT22;30716;41.740;-70.400;2022-11-20T09:26:02;25.50;46.80
44982;DHT22;30716;41.740;-70.400;2022-11-20T09:28:29;25.50;47.00
44982;DHT22;30716;41.740;-70.400;2022-11-20T09:30:55;25.50;46.50
44982;DHT22;30716;41.740;-70.400;2022-11-20T09:33:21;25.50;46.50
44982;DHT22;30716;41.740;-70.400;2022-11-20T09:35:47;25.50;47.10
44982;DHT22;30716;41.740;-70.400;2022-11-20T09:38:13;25.50;46.50
44982;DHT22;30716;41.740;-70.400;2022-11-20T09:41:04;25.60;46.70
44982;DHT22;30716;41.740;-70.400;2022-11-20T09:46:35;25.60;46.50
44982;DHT22;30716;41.740;-70.400;2022-11-20T09:54:41;25.60;46.50
44982;DHT22;30716;41.740;-70.400;2022-11-20T09:57:14;25.60;46.50
44982;DHT22;30716;41.740;-70.400;2022-11-20T09:59:45;25.60;46.40
44982;DHT22;30716;41.740;-70.400;2022-11-20T10:02:41;25.70;46.30
44982;DHT22;30716;41.740;-70.400;2022-11-20T10:05:12;25.70;46.20
44982;DHT22;30716;41.740;-70.400;2022-11-20T10:18:48;25.80;46.00
44982;DHT22;30716;41.740;-70.400;2022-11-20T10:21:58;25.80;45.90
44982;DHT22;30716;41.740;-70.400;2022-11-20T10:24:48;25.80;45.90
44982;DHT22;30716;41.740;-70.400;2022-11-20T10:29:47;25.90;45.70
44982;DHT22;30716;41.740;-70.400;2022-11-20T10:32:19;25.90;45.90
44982;DHT22;30716;41.740;-70.400;2022-11-20T10:34:53;25.90;45.50
44982;DHT22;30716;41.740;-70.400;2022-11-20T10:37:26;25.90;45.50
44982;DHT22;30716;41.740;-70.400;2022-11-20T10:43:01;25.90;45.50
44982;DHT22;30716;41.740;-70.400;2022-11-20T10:48:26;25.90;45.80
44982;DHT22;30716;41.740;-70.400;2022-11-20T10:53:50;25.90;45.90
44982;DHT22;30716;41.740;-70.400;2022-11-20T10:57:05;25.90;45.80
44982;DHT22;30716;41.740;-70.400;2022-11-20T10:59:28;26.00;45.80
44982;DHT22;30716;41.740;-70.400;2022-11-20T11:01:56;25.90;46.00
44982;DHT22;30716;41.740;-70.400;2022-11-20T11:04:55;25.90;46.00
44982;DHT22;30716;41.740;-70.400;2022-11-20T11:07:27;25.90;46.70
44982;DHT22;30716;41.740;-70.400;2022-11-20T11:09:57;25.90;46.50
44982;DHT22;30716;41.740;-70.400;2022-11-20T11:12:28;25.90;46.00
44982;DHT22;30716;41.740;-70.400;2022-11-20T11:14:56;25.80;46.70
44982;DHT22;30716;41.740;-70.400;2022-11-20T11:17:33;25.80;46.10
44982;DHT22;30716;41.740;-70.400;2022-11-20T11:20:04;25.80;46.40
44982;DHT22;30716;41.740;-70.400;2022-11-20T11:22:33;25.80;46.50
44982;DHT22;30716;41.740;-70.400;2022-11-20T11:25:00;25.70;46.60
44982;DHT22;30716;41.740;-70.400;2022-11-20T11:27:27;25.70;46.70
44982;DHT22;30716;41.740;-70.400;2022-11-20T11:30:12;25.70;46.90
44982;DHT22;30716;41.740;-70.400;2022-11-20T11:32:39;25.60;46.80
44982;DHT22;30716;41.740;-70.400;2022-11-20T11:35:18;25.60;47.10
44982;DHT22;30716;41.740;-70.400;2022-11-20T11:37:45;25.60;47.30
44982;DHT22;30716;41.740;-70.400;2022-11-20T11:40:13;25.60;47.50
44982;DHT22;30716;41.740;-70.400;2022-11-20T11:42:44;25.60;47.70
44982;DHT22;30716;41.740;-70.400;2022-11-20T11:45:14;25.50;47.70
44982;DHT22;30716;41.740;-70.400;2022-11-20T11:53:12;25.50;47.70
44982;DHT22;30716;41.740;-70.400;2022-11-20T11:58:51;25.40;47.60
44982;DHT22;30716;41.740;-70.400;2022-11-20T12:09:52;25.30;47.60
44982;DHT22;30716;41.740;-70.400;2022-11-20T12:12:42;25.30;47.50
44982;DHT22;30716;41.740;-70.400;2022-11-20T12:15:22;25.30;47.50
44982;DHT22;30716;41.740;-70.400;2022-11-20T12:17:50;25.30;47.50
44982;DHT22;30716;41.740;-70.400;2022-11-20T12:20:17;25.30;47.50
44982;DHT22;30716;41.740;-70.400;2022-11-20T12:23:06;25.30;48.30
44982;DHT22;30716;41.740;-70.400;2022-11-20T12:25:38;25.30;47.50
44982;DHT22;30716;41.740;-70.400;2022-11-20T12:30:58;25.20;47.50
44982;DHT22;30716;41.740;-70.400;2022-11-20T12:40:08;25.20;47.50
44982;DHT22;30716;41.740;-70.400;2022-11-20T12:45:54;25.20;47.40
44982;DHT22;30716;41.740;-70.400;2022-11-20T12:48:41;25.20;47.50
44982;DHT22;30716;41.740;-70.400;2022-11-20T12:51:26;25.20;47.50
44982;DHT22;30716;41.740;-70.400;2022-11-20T12:56:54;25.20;47.50
44982;DHT22;30716;41.740;-70.400;2022-11-20T12:59:33;25.20;47.50
44982;DHT22;30716;41.740;-70.400;2022-11-20T13:02:35;25.20;47.50
44982;DHT22;30716;41.740;-70.400;2022-11-20T13:07:30;25.20;47.50
44982;DHT22;30716;41.740;-70.400;2022-11-20T13:09:59;25.20;47.50
44982;DHT22;30716;41.740;-70.400;2022-11-20T13:12:47;25.20;47.50
44982;DHT22;30716;41.740;-70.400;2022-11-20T13:15:47;25.10;47.40
44982;DHT22;30716;41.740;-70.400;2022-11-20T13:18:15;25.20;47.40
44982;DHT22;30716;41.740;-70.400;2022-11-20T13:20:44;25.20;47.50
44982;DHT22;30716;41.740;-70.400;2022-11-20T13:23:11;25.10;47.40
44982;DHT22;30716;41.740;-70.400;2022-11-20T13:25:39;25.10;47.40
44982;DHT22;30716;41.740;-70.400;2022-11-20T13:30:31;25.10;47.40
44982;DHT22;30716;41.740;-70.400;2022-11-20T13:33:22;25.10;47.40
44982;DHT22;30716;41.740;-70.400;2022-11-20T13:36:22;25.10;47.40
44982;DHT22;30716;41.740;-70.400;2022-11-20T13:38:51;25.10;47.40
44982;DHT22;30716;41.740;-70.400;2022-11-20T13:41:32;25.10;47.40
44982;DHT22;30716;41.740;-70.400;2022-11-20T13:44:25;25.10;47.40
44982;DHT22;30716;41.740;-70.400;2022-11-20T13:46:52;25.00;47.30
44982;DHT22;30716;41.740;-70.400;2022-11-20T13:49:39;25.10;47.40
44982;DHT22;30716;41.740;-70.400;2022-11-20T14:00:57;25.10;47.40
44982;DHT22;30716;41.740;-70.400;2022-11-20T14:03:24;25.00;47.40
44982;DHT22;30716;41.740;-70.400;2022-11-20T14:06:02;25.10;47.40
44982;DHT22;30716;41.740;-70.400;2022-11-20T14:08:39;25.10;47.40
44982;DHT22;30716;41.740;-70.400;2022-11-20T14:11:22;25.00;47.40
44982;DHT22;30716;41.740;-70.400;2022-11-20T14:14:04;25.00;47.40
44982;DHT22;30716;41.740;-70.400;2022-11-20T14:16:35;25.00;47.30
44982;DHT22;30716;41.740;-70.400;2022-11-20T14:21:48;25.00;47.30
44982;DHT22;30716;41.740;-70.400;2022-11-20T14:24:19;25.00;47.30
44982;DHT22;30716;41.740;-70.400;2022-11-20T14:26:46;25.00;47.30
44982;DHT22;30716;41.740;-70.400;2022-11-20T14:29:34;25.00;47.30
44982;DHT22;30716;41.740;-70.400;2022-11-20T14:32:01;25.00;47.30
44982;DHT22;30716;41.740;-70.400;2022-11-20T14:34:31;25.00;47.30
44982;DHT22;30716;41.740;-70.400;2022-11-20T14:37:12;25.00;47.30
44982;DHT22;30716;41.740;-70.400;2022-11-20T14:39:47;25.00;47.30
44982;DHT22;30716;41.740;-70.400;2022-11-20T14:42:25;25.00;47.30
44982;DHT22;30716;41.740;-70.400;2022-11-20T14:44:55;25.00;47.30
44982;DHT22;30716;41.740;-70.400;2022-11-20T14:47:25;25.00;47.30
44982;DHT22;30716;41.740;-70.400;2022-11-20T14:49:52;25.00;47.30
44982;DHT22;30716;41.740;-70.400;2022-11-20T14:52:21;25.00;47.30
44982;DHT22;30716;41.740;-70.400;2022-11-20T14:54:49;25.00;47.30
44982;DHT22;30716;41.740;-70.400;2022-11-20T14:57:27;25.00;47.30
44982;DHT22;30716;41.740;-70.400;2022-11-20T15:00:27;25.00;47.30
44982;DHT22;30716;41.740;-70.400;2022-11-20T15:02:52;25.00;47.30
44982;DHT22;30716;41.740;-70.400;2022-11-20T15:08:09;25.00;47.30
44982;DHT22;30716;41.740;-70.400;2022-11-20T15:10:36;24.90;47.20
44982;DHT22;30716;41.740;-70.400;2022-11-20T15:13:12;25.00;47.30
44982;DHT22;30716;41.740;-70.400;2022-11-20T15:15:56;24.90;47.20
44982;DHT22;30716;41.740;-70.400;2022-11-20T15:21:00;24.90;47.20
44982;DHT22;30716;41.740;-70.400;2022-11-20T15:23:27;24.90;47.20
44982;DHT22;30716;41.740;-70.400;2022-11-20T15:25:54;24.90;47.20
44982;DHT22;30716;41.740;-70.400;2022-11-20T15:28:30;24.90;47.20
44982;DHT22;30716;41.740;-70.400;2022-11-20T15:30:56;24.90;47.20
44982;DHT22;30716;41.740;-70.400;2022-11-20T15:33:23;24.90;47.20
44982;DHT22;30716;41.740;-70.400;2022-11-20T15:35:49;24.80;47.20
44982;DHT22;30716;41.740;-70.400;2022-11-20T15:38:15;24.80;47.20
44982;DHT22;30716;41.740;-70.400;2022-11-20T15:40:41;24.90;47.20
44982;DHT22;30716;41.740;-70.400;2022-11-20T15:43:07;24.80;47.20
44982;DHT22;30716;41.740;-70.400;2022-11-20T15:45:41;24.80;47.20
44982;DHT22;30716;41.740;-70.400;2022-11-20T15:48:23;24.80;47.10
44982;DHT22;30716;41.740;-70.400;2022-11-20T15:53:35;24.80;47.20
44982;DHT22;30716;41.740;-70.400;2022-11-20T15:56:01;24.80;47.20
44982;DHT22;30716;41.740;-70.400;2022-11-20T15:58:27;24.80;47.20
44982;DHT22;30716;41.740;-70.400;2022-11-20T16:00:54;24.80;47.20
44982;DHT22;30716;41.740;-70.400;2022-11-20T16:03:20;24.80;47.20
44982;DHT22;30716;41.740;-70.400;2022-11-20T16:05:46;24.80;47.20
44982;DHT22;30716;41.740;-70.400;2022-11-20T16:08:13;24.80;47.10
44982;DHT22;30716;41.740;-70.400;2022-11-20T16:10:39;24.80;47.20
44982;DHT22;30716;41.740;-70.400;2022-11-20T16:13:12;24.80;47.10
44982;DHT22;30716;41.740;-70.400;2022-11-20T16:15:58;24.80;47.10
44982;DHT22;30716;41.740;-70.400;2022-11-20T16:18:24;24.80;47.20
44982;DHT22;30716;41.740;-70.400;2022-11-20T16:20:54;24.80;47.20
44982;DHT22;30716;41.740;-70.400;2022-11-20T16:23:21;24.80;47.20
44982;DHT22;30716;41.740;-70.400;2022-11-20T16:25:48;24.80;47.20
44982;DHT22;30716;41.740;-70.400;2022-11-20T16:28:14;24.80;47.20
44982;DHT22;30716;41.740;-70.400;2022-11-20T16:30:40;24.80;47.20
44982;DHT22;30716;41.740;-70.400;2022-11-20T16:33:11;24.80;47.20
44982;DHT22;30716;41.740;-70.400;2022-11-20T16:35:38;24.80;47.20
44982;DHT22;30716;41.740;-70.400;2022-11-20T16:38:04;24.80;47.20
44982;DHT22;30716;41.740;-70.400;2022-11-20T16:40:30;24.80;47.20
44982;DHT22;30716;41.740;-70.400;2022-11-20T16:42:56;24.80;47.20
44982;DHT22;30716;41.740;-70.400;2022-11-20T16:45:23;24.80;47.20
44982;DHT22;30716;41.740;-70.400;2022-11-20T16:47:49;24.80;47.20
44982;DHT22;30716;41.740;-70.400;2022-11-20T16:50:15;24.80;47.20
44982;DHT22;30716;41.740;-70.400;2022-11-20T16:52:41;24.80;47.20
44982;DHT22;30716;41.740;-70.400;2022-11-20T16:55:08;24.80;47.20
44982;DHT22;30716;41.740;-70.400;2022-11-20T16:57:34;24.80;47.20
44982;DHT22;30716;41.740;-70.400;2022-11-20T17:00:00;24.80;47.20